Time,TemperatureF,DewpointF,PressureIn,WindDirection,WindDirectionDegrees,WindSpeedMPH,WindSpeedGustMPH,Humidity,HourlyPrecipIn,Conditions,Clouds,dailyrainin,SoftwareType,DateUTC
2013-04-02 00:00:00,71.6,65.2,30.02,NW,309,0.0,0.0,80,0.00,,,0.00,VWS V14.01,2013-04-02 04:00:00,
2013-04-02 00:05:00,71.5,65.2,30.02,NW,309,0.0,0.0,81,0.00,,,0.00,VWS V14.01,2013-04-02 04:05:00,
2013-04-02 00:10:00,71.4,65.3,30.02,NW,309,0.0,0.0,81,0.00,,,0.00,VWS V14.01,2013-04-02 04:10:00,
2013-04-02 00:15:00,71.0,65.1,30.02,NW,309,0.0,0.0,82,0.00,,,0.00,VWS V14.01,2013-04-02 04:15:00,
2013-04-02 00:20:00,71.1,65.2,30.02,NW,309,0.0,0.0,82,0.00,,,0.00,VWS V14.01,2013-04-02 04:20:00,
2013-04-02 00:25:00,70.9,65.1,30.02,NW,309,0.0,0.0,82,0.00,,,0.00,VWS V14.01,2013-04-02 04:25:00,
2013-04-02 00:30:00,70.8,65.2,30.02,NW,309,0.0,0.0,83,0.00,,,0.00,VWS V14.01,2013-04-02 04:30:00,
2013-04-02 00:35:00,70.5,65.1,30.02,NW,309,0.0,2.7,83,0.00,,,0.00,VWS V14.01,2013-04-02 04:35:00,
2013-04-02 00:40:00,70.4,65.2,30.02,NW,309,0.0,0.0,84,0.00,,,0.00,VWS V14.01,2013-04-02 04:40:00,
2013-04-02 00:45:00,70.3,65.1,30.02,NW,309,0.0,0.0,84,0.00,,,0.00,VWS V14.01,2013-04-02 04:45:00,
2013-04-02 00:50:00,70.3,65.2,30.02,NW,309,0.0,0.0,84,0.00,,,0.00,VWS V14.01,2013-04-02 04:50:00,
2013-04-02 00:55:00,70.0,65.1,30.02,NW,309,0.0,0.0,84,0.00,,,0.00,VWS V14.01,2013-04-02 04:55:00,
2013-04-02 01:00:00,69.9,65.1,30.02,NW,309,0.0,0.0,85,0.00,,,0.00,VWS V14.01,2013-04-02 05:00:00,
2013-04-02 01:05:00,69.8,65.1,30.02,NW,309,0.0,0.0,85,0.00,,,0.00,VWS V14.01,2013-04-02 05:05:00,
2013-04-02 01:10:00,69.8,65.2,30.02,NW,309,0.0,0.0,85,0.00,,,0.00,VWS V14.01,2013-04-02 05:10:00,
2013-04-02 01:15:00,69.5,65.0,30.02,NW,309,0.0,0.0,86,0.00,,,0.00,VWS V14.01,2013-04-02 05:15:00,
2013-04-02 01:20:00,69.5,65.0,30.02,NW,309,0.0,0.0,86,0.00,,,0.00,VWS V14.01,2013-04-02 05:20:00,
2013-04-02 01:25:00,69.3,64.8,30.02,NW,309,0.0,0.0,86,0.00,,,0.00,VWS V14.01,2013-04-02 05:25:00,
2013-04-02 01:30:00,69.3,65.1,30.02,NW,309,0.0,0.0,86,0.00,,,0.00,VWS V14.01,2013-04-02 05:30:00,
2013-04-02 01:35:00,69.2,65.0,30.02,NW,309,0.0,0.0,86,0.00,,,0.00,VWS V14.01,2013-04-02 05:35:00,
2013-04-02 01:40:00,69.1,65.0,30.02,NW,309,0.0,0.0,87,0.00,,,0.00,VWS V14.01,2013-04-02 05:40:00,
2013-04-02 01:45:00,69.1,65.1,30.02,NW,309,0.0,0.0,87,0.00,,,0.00,VWS V14.01,2013-04-02 05:45:00,
2013-04-02 01:50:00,68.8,64.8,30.02,NW,309,0.0,0.0,87,0.00,,,0.00,VWS V14.01,2013-04-02 05:50:00,
2013-04-02 01:55:00,68.7,64.8,30.02,NW,309,0.0,0.0,87,0.00,,,0.00,VWS V14.01,2013-04-02 05:55:00,
2013-04-02 02:00:00,68.6,64.8,30.02,NW,309,0.0,0.0,88,0.00,,,0.00,VWS V14.01,2013-04-02 06:00:00,
2013-04-02 02:05:00,68.5,64.8,30.02,NW,309,0.0,0.0,88,0.00,,,0.00,VWS V14.01,2013-04-02 06:05:00,
2013-04-02 02:10:00,68.4,64.7,30.02,NW,309,0.0,0.0,88,0.00,,,0.00,VWS V14.01,2013-04-02 06:10:00,
2013-04-02 02:15:00,68.5,64.7,30.02,NW,309,0.0,0.0,88,0.00,,,0.00,VWS V14.01,2013-04-02 06:15:00,
2013-04-02 02:20:00,68.4,64.7,30.02,NW,309,0.0,0.0,88,0.00,,,0.00,VWS V14.01,2013-04-02 06:20:00,
2013-04-02 02:24:00,68.3,64.7,30.02,NW,309,0.0,0.0,88,0.00,,,0.00,VWS V14.01,2013-04-02 06:24:00,
2013-04-02 02:29:00,68.1,64.5,30.02,NW,309,0.0,0.0,88,0.00,,,0.00,VWS V14.01,2013-04-02 06:29:00,
2013-04-02 02:34:00,68.0,64.6,30.02,NW,309,0.0,0.0,89,0.00,,,0.00,VWS V14.01,2013-04-02 06:34:00,
2013-04-02 02:39:00,67.9,64.5,30.02,NW,309,0.0,2.1,89,0.00,,,0.00,VWS V14.01,2013-04-02 06:39:00,
2013-04-02 02:44:00,67.8,64.5,30.02,NW,309,0.0,0.0,89,0.00,,,0.00,VWS V14.01,2013-04-02 06:44:00,
2013-04-02 02:49:00,67.7,64.3,30.03,NW,309,0.0,0.0,89,0.00,,,0.00,VWS V14.01,2013-04-02 06:49:00,
2013-04-02 02:54:00,67.6,64.2,30.02,NW,309,0.0,0.0,89,0.00,,,0.00,VWS V14.01,2013-04-02 06:54:00,
2013-04-02 02:59:00,67.5,64.1,30.02,NW,309,0.0,0.0,89,0.00,,,0.00,VWS V14.01,2013-04-02 06:59:00,
2013-04-02 03:04:00,67.7,64.4,30.02,NW,309,0.0,0.0,89,0.00,,,0.00,VWS V14.01,2013-04-02 07:04:00,
2013-04-02 03:09:00,67.7,64.4,30.02,NW,309,0.0,0.0,89,0.00,,,0.00,VWS V14.01,2013-04-02 07:09:00,
2013-04-02 03:14:00,67.2,63.9,30.02,NW,309,0.0,0.0,89,0.00,,,0.00,VWS V14.01,2013-04-02 07:14:00,
2013-04-02 03:19:00,67.3,64.1,30.02,NW,309,0.0,0.0,89,0.00,,,0.00,VWS V14.01,2013-04-02 07:19:00,
2013-04-02 03:24:00,66.9,63.7,30.02,NW,309,0.0,0.0,89,0.00,,,0.00,VWS V14.01,2013-04-02 07:24:00,
2013-04-02 03:29:00,66.8,63.6,30.02,NW,309,0.0,0.0,90,0.00,,,0.00,VWS V14.01,2013-04-02 07:29:00,
2013-04-02 03:34:00,66.8,63.7,30.02,NW,309,0.0,0.0,90,0.00,,,0.00,VWS V14.01,2013-04-02 07:34:00,
2013-04-02 03:39:00,66.4,63.2,30.02,NW,309,0.0,0.0,90,0.00,,,0.00,VWS V14.01,2013-04-02 07:39:00,
2013-04-02 03:44:00,66.6,63.5,30.02,NW,309,0.0,0.0,90,0.00,,,0.00,VWS V14.01,2013-04-02 07:44:00,
2013-04-02 03:49:00,66.2,63.1,30.02,NW,309,0.0,0.0,90,0.00,,,0.00,VWS V14.01,2013-04-02 07:49:00,
2013-04-02 03:54:00,66.2,63.1,30.02,NW,309,0.0,0.0,90,0.00,,,0.00,VWS V14.01,2013-04-02 07:54:00,
2013-04-02 03:59:00,66.0,63.0,30.02,NW,309,0.0,0.0,90,0.00,,,0.00,VWS V14.01,2013-04-02 07:59:00,
2013-04-02 04:04:00,66.0,63.0,30.02,NW,309,0.0,0.0,90,0.00,,,0.00,VWS V14.01,2013-04-02 08:04:00,
2013-04-02 04:09:00,65.6,62.6,30.02,NW,309,0.0,0.0,90,0.00,,,0.00,VWS V14.01,2013-04-02 08:09:00,
2013-04-02 04:14:00,65.3,62.4,30.03,NW,309,0.0,0.0,90,0.00,,,0.00,VWS V14.01,2013-04-02 08:14:00,
2013-04-02 04:19:00,65.6,62.6,30.03,NW,309,0.0,0.0,90,0.00,,,0.00,VWS V14.01,2013-04-02 08:19:00,
2013-04-02 04:24:00,65.4,62.4,30.03,NW,309,0.0,0.0,90,0.00,,,0.00,VWS V14.01,2013-04-02 08:24:00,
2013-04-02 04:29:00,65.6,62.7,30.03,NW,309,0.0,0.0,90,0.00,,,0.00,VWS V14.01,2013-04-02 08:29:00,
2013-04-02 04:34:00,65.2,62.3,30.03,NW,309,0.0,0.0,90,0.00,,,0.00,VWS V14.01,2013-04-02 08:34:00,
2013-04-02 04:39:00,65.4,62.5,30.03,NW,309,0.0,0.0,90,0.00,,,0.00,VWS V14.01,2013-04-02 08:39:00,
2013-04-02 04:44:00,65.2,62.3,30.03,NW,309,0.0,0.0,90,0.00,,,0.00,VWS V14.01,2013-04-02 08:44:00,
2013-04-02 04:49:00,65.1,62.2,30.03,NW,309,0.0,0.0,90,0.00,,,0.00,VWS V14.01,2013-04-02 08:49:00,
2013-04-02 04:54:00,65.0,62.1,30.04,NW,309,0.0,0.0,90,0.00,,,0.00,VWS V14.01,2013-04-02 08:54:00,
2013-04-02 04:59:00,65.2,62.3,30.04,NW,309,0.0,0.0,90,0.00,,,0.00,VWS V14.01,2013-04-02 08:59:00,
2013-04-02 05:04:00,65.0,62.1,30.04,NW,309,0.0,0.0,90,0.00,,,0.00,VWS V14.01,2013-04-02 09:04:00,
2013-04-02 05:09:00,65.1,62.2,30.04,NW,309,0.0,0.0,90,0.00,,,0.00,VWS V14.01,2013-04-02 09:09:00,
2013-04-02 05:14:00,65.1,62.3,30.04,NW,309,0.0,0.0,90,0.00,,,0.00,VWS V14.01,2013-04-02 09:14:00,
2013-04-02 05:19:00,64.9,62.0,30.04,NW,309,0.0,0.0,90,0.00,,,0.00,VWS V14.01,2013-04-02 09:19:00,
2013-04-02 05:24:00,65.0,62.2,30.04,NW,309,0.0,0.0,90,0.00,,,0.00,VWS V14.01,2013-04-02 09:24:00,
2013-04-02 05:29:00,64.9,62.1,30.04,NW,309,0.0,0.0,91,0.00,,,0.00,VWS V14.01,2013-04-02 09:29:00,
2013-04-02 05:34:00,64.9,62.1,30.04,NW,309,0.0,0.0,91,0.00,,,0.00,VWS V14.01,2013-04-02 09:34:00,
2013-04-02 05:39:00,64.9,62.1,30.04,NW,309,0.0,0.0,91,0.00,,,0.00,VWS V14.01,2013-04-02 09:39:00,
2013-04-02 05:44:00,64.7,61.9,30.04,NW,309,0.0,0.0,91,0.00,,,0.00,VWS V14.01,2013-04-02 09:44:00,
2013-04-02 05:49:00,64.6,61.9,30.04,NW,309,0.0,0.0,91,0.00,,,0.00,VWS V14.01,2013-04-02 09:49:00,
2013-04-02 05:54:00,64.6,61.9,30.04,NW,309,0.0,0.0,91,0.00,,,0.00,VWS V14.01,2013-04-02 09:54:00,
2013-04-02 05:59:00,64.7,62.0,30.04,NW,309,0.0,0.0,91,0.00,,,0.00,VWS V14.01,2013-04-02 09:59:00,
2013-04-02 06:04:00,64.2,61.5,30.04,NW,309,0.0,0.0,91,0.00,,,0.00,VWS V14.01,2013-04-02 10:04:00,
2013-04-02 06:09:00,64.2,61.5,30.04,NW,309,0.0,0.0,91,0.00,,,0.00,VWS V14.01,2013-04-02 10:09:00,
2013-04-02 06:14:00,64.2,61.6,30.04,NW,309,0.0,0.0,91,0.00,,,0.00,VWS V14.01,2013-04-02 10:14:00,
2013-04-02 06:19:00,64.0,61.4,30.04,NW,309,0.0,0.0,91,0.00,,,0.00,VWS V14.01,2013-04-02 10:19:00,
2013-04-02 06:24:00,64.1,61.5,30.04,NW,309,0.0,0.0,91,0.00,,,0.00,VWS V14.01,2013-04-02 10:24:00,
2013-04-02 06:29:00,63.9,61.3,30.04,NW,309,0.0,0.0,91,0.00,,,0.00,VWS V14.01,2013-04-02 10:29:00,
2013-04-02 06:34:00,63.9,61.3,30.04,NW,309,0.0,0.0,91,0.00,,,0.00,VWS V14.01,2013-04-02 10:34:00,
2013-04-02 06:39:00,63.9,61.3,30.04,NW,309,0.0,0.0,91,0.00,,,0.00,VWS V14.01,2013-04-02 10:39:00,
2013-04-02 06:44:00,63.8,61.2,30.04,NW,309,0.0,0.0,91,0.00,,,0.00,VWS V14.01,2013-04-02 10:44:00,
2013-04-02 06:49:00,63.6,61.0,30.05,NW,309,0.0,0.0,91,0.00,,,0.00,VWS V14.01,2013-04-02 10:49:00,
2013-04-02 06:54:00,63.6,61.0,30.05,NW,309,0.0,0.0,91,0.00,,,0.00,VWS V14.01,2013-04-02 10:54:00,
2013-04-02 06:59:00,63.4,60.8,30.05,NW,309,0.0,0.0,91,0.00,,,0.00,VWS V14.01,2013-04-02 10:59:00,
2013-04-02 07:04:00,63.7,61.1,30.05,NW,309,0.0,0.0,91,0.00,,,0.00,VWS V14.01,2013-04-02 11:04:00,
2013-04-02 07:09:00,63.4,60.8,30.05,NW,309,0.0,0.0,91,0.00,,,0.00,VWS V14.01,2013-04-02 11:09:00,
2013-04-02 07:14:00,63.5,61.0,30.06,NW,309,0.0,0.0,91,0.00,,,0.00,VWS V14.01,2013-04-02 11:14:00,
2013-04-02 07:19:00,63.4,60.9,30.06,NW,309,0.0,0.0,92,0.00,,,0.00,VWS V14.01,2013-04-02 11:19:00,
2013-04-02 07:24:00,63.0,60.5,30.06,NW,309,0.0,0.0,92,0.00,,,0.00,VWS V14.01,2013-04-02 11:24:00,
2013-04-02 07:29:00,63.2,60.7,30.06,NW,309,0.0,0.0,92,0.00,,,0.00,VWS V14.01,2013-04-02 11:29:00,
2013-04-02 07:34:00,63.0,60.5,30.06,NW,309,0.0,0.0,92,0.00,,,0.00,VWS V14.01,2013-04-02 11:34:00,
2013-04-02 07:39:00,62.9,60.5,30.07,NW,309,0.0,0.0,92,0.00,,,0.00,VWS V14.01,2013-04-02 11:39:00,
2013-04-02 07:44:00,63.0,60.6,30.07,NW,309,0.0,0.0,92,0.00,,,0.00,VWS V14.01,2013-04-02 11:44:00,
2013-04-02 07:49:00,63.3,60.9,30.07,NW,309,0.0,0.0,92,0.00,,,0.00,VWS V14.01,2013-04-02 11:49:00,
2013-04-02 07:54:00,62.8,60.4,30.07,NW,309,0.0,0.0,92,0.00,,,0.00,VWS V14.01,2013-04-02 11:54:00,
2013-04-02 07:59:00,63.4,61.0,30.07,NW,309,0.0,0.0,92,0.00,,,0.00,VWS V14.01,2013-04-02 11:59:00,
2013-04-02 08:04:00,62.6,60.3,30.07,NW,309,0.0,0.0,92,0.00,,,0.00,VWS V14.01,2013-04-02 12:04:00,
2013-04-02 08:09:00,63.5,61.2,30.08,NW,309,0.0,0.0,92,0.00,,,0.00,VWS V14.01,2013-04-02 12:09:00,
2013-04-02 08:14:00,63.0,60.7,30.08,NW,309,0.0,0.0,92,0.00,,,0.00,VWS V14.01,2013-04-02 12:14:00,
2013-04-02 08:19:00,63.5,61.2,30.08,NW,309,0.0,0.0,92,0.00,,,0.00,VWS V14.01,2013-04-02 12:19:00,
2013-04-02 08:24:00,63.5,61.2,30.08,NW,309,0.0,0.0,92,0.00,,,0.00,VWS V14.01,2013-04-02 12:24:00,
2013-04-02 08:29:00,63.6,61.3,30.09,NW,309,0.0,0.0,92,0.00,,,0.00,VWS V14.01,2013-04-02 12:29:00,
2013-04-02 08:34:00,63.9,61.6,30.09,NW,309,0.0,0.0,92,0.00,,,0.00,VWS V14.01,2013-04-02 12:34:00,
2013-04-02 08:39:00,64.0,61.7,30.09,NW,309,0.0,0.0,92,0.00,,,0.00,VWS V14.01,2013-04-02 12:39:00,
2013-04-02 08:43:00,64.6,62.2,30.09,West,264,0.0,3.3,92,0.00,,,0.00,VWS V14.01,2013-04-02 12:43:00,
2013-04-02 08:48:00,64.4,61.9,30.09,West,276,0.0,0.0,92,0.00,,,0.00,VWS V14.01,2013-04-02 12:48:00,
2013-04-02 08:53:00,64.9,62.3,30.09,West,276,0.0,0.0,91,0.00,,,0.00,VWS V14.01,2013-04-02 12:53:00,
2013-04-02 08:58:00,64.9,62.2,30.09,North,359,0.0,0.0,91,0.00,,,0.00,VWS V14.01,2013-04-02 12:58:00,
2013-04-02 09:03:00,65.3,62.5,30.08,North,359,0.0,3.4,91,0.00,,,0.00,VWS V14.01,2013-04-02 13:03:00,
2013-04-02 09:08:00,65.9,63.0,30.09,NNW,332,2.2,2.2,90,0.00,,,0.00,VWS V14.01,2013-04-02 13:08:00,
2013-04-02 09:13:00,66.0,62.8,30.09,NNW,345,0.0,6.8,89,0.00,,,0.00,VWS V14.01,2013-04-02 13:13:00,
2013-04-02 09:18:00,66.7,63.0,30.09,NNW,345,0.0,0.0,88,0.00,,,0.00,VWS V14.01,2013-04-02 13:18:00,
2013-04-02 09:23:00,67.0,63.2,30.09,NNW,345,0.0,0.0,88,0.00,,,0.00,VWS V14.01,2013-04-02 13:23:00,
2013-04-02 09:28:00,67.8,63.2,30.09,NNW,336,0.0,0.0,85,0.00,,,0.00,VWS V14.01,2013-04-02 13:28:00,
2013-04-02 09:33:00,68.4,63.2,30.09,NNW,336,0.0,0.0,84,0.00,,,0.00,VWS V14.01,2013-04-02 13:33:00,
2013-04-02 09:38:00,69.0,62.4,30.10,NNW,336,0.0,0.0,79,0.00,,,0.00,VWS V14.01,2013-04-02 13:38:00,
2013-04-02 09:43:00,69.8,62.8,30.10,NNW,336,0.0,0.0,78,0.00,,,0.00,VWS V14.01,2013-04-02 13:43:00,
2013-04-02 09:48:00,70.5,63.3,30.10,NNW,336,0.0,0.0,78,0.00,,,0.00,VWS V14.01,2013-04-02 13:48:00,
2013-04-02 09:53:00,71.0,63.2,30.10,NNW,336,0.0,0.0,76,0.00,,,0.00,VWS V14.01,2013-04-02 13:53:00,
2013-04-02 09:58:00,71.6,63.8,30.10,NNW,336,0.0,0.0,76,0.00,,,0.00,VWS V14.01,2013-04-02 13:58:00,
2013-04-02 10:03:00,72.2,62.9,30.10,NNE,24,0.0,5.0,72,0.00,,,0.00,VWS V14.01,2013-04-02 14:03:00,
2013-04-02 10:08:00,72.7,62.5,30.10,NE,34,0.0,2.7,70,0.00,,,0.00,VWS V14.01,2013-04-02 14:08:00,
2013-04-02 10:13:00,73.2,62.1,30.10,NE,34,0.0,0.0,68,0.00,,,0.00,VWS V14.01,2013-04-02 14:13:00,
2013-04-02 10:18:00,73.6,62.3,30.10,NE,34,0.0,0.0,68,0.00,,,0.00,VWS V14.01,2013-04-02 14:18:00,
2013-04-02 10:23:00,74.0,62.5,30.10,North,359,0.0,0.0,67,0.00,,,0.00,VWS V14.01,2013-04-02 14:23:00,
2013-04-02 10:28:00,74.5,62.4,30.10,North,359,0.0,0.0,66,0.00,,,0.00,VWS V14.01,2013-04-02 14:28:00,
2013-04-02 10:33:00,74.8,62.8,30.10,North,359,0.0,0.0,66,0.00,,,0.00,VWS V14.01,2013-04-02 14:33:00,
2013-04-02 10:38:00,75.0,62.1,30.11,North,359,0.0,2.9,64,0.00,,,0.00,VWS V14.01,2013-04-02 14:38:00,
2013-04-02 10:43:00,75.0,61.9,30.11,NNE,20,0.0,0.0,64,0.00,,,0.00,VWS V14.01,2013-04-02 14:43:00,
2013-04-02 10:48:00,75.7,62.5,30.11,NNE,20,0.0,0.0,64,0.00,,,0.00,VWS V14.01,2013-04-02 14:48:00,
2013-04-02 10:53:00,75.7,62.2,30.10,NNE,20,0.0,0.0,63,0.00,,,0.00,VWS V14.01,2013-04-02 14:53:00,
2013-04-02 10:58:00,76.2,61.8,30.10,NNE,20,0.0,0.0,61,0.00,,,0.00,VWS V14.01,2013-04-02 14:58:00,
2013-04-02 11:03:00,76.5,61.9,30.10,NNE,20,0.0,0.0,61,0.00,,,0.00,VWS V14.01,2013-04-02 15:03:00,
2013-04-02 11:08:00,76.8,62.6,30.10,NNE,20,0.0,0.0,62,0.00,,,0.00,VWS V14.01,2013-04-02 15:08:00,
2013-04-02 11:13:00,77.1,61.2,30.10,NNE,20,0.0,0.0,58,0.00,,,0.00,VWS V14.01,2013-04-02 15:13:00,
2013-04-02 11:18:00,77.4,61.1,30.10,NNE,20,0.0,0.0,57,0.00,,,0.00,VWS V14.01,2013-04-02 15:18:00,
2013-04-02 11:23:00,77.8,62.0,30.11,NE,48,0.0,0.0,58,0.00,,,0.00,VWS V14.01,2013-04-02 15:23:00,
2013-04-02 11:28:00,78.0,61.4,30.11,NE,46,0.0,0.0,57,0.00,,,0.00,VWS V14.01,2013-04-02 15:28:00,
2013-04-02 11:33:00,78.2,61.9,30.11,NE,46,0.0,0.0,57,0.00,,,0.00,VWS V14.01,2013-04-02 15:33:00,
2013-04-02 11:38:00,78.9,62.0,30.11,NE,46,0.0,0.0,56,0.00,,,0.00,VWS V14.01,2013-04-02 15:38:00,
2013-04-02 11:43:00,79.0,61.8,30.11,NE,46,0.0,0.0,56,0.00,,,0.00,VWS V14.01,2013-04-02 15:43:00,
2013-04-02 11:48:00,79.0,61.7,30.11,ENE,72,0.0,2.8,56,0.00,,,0.00,VWS V14.01,2013-04-02 15:48:00,
2013-04-02 11:53:00,79.2,61.0,30.11,ENE,72,0.0,0.0,54,0.00,,,0.00,VWS V14.01,2013-04-02 15:53:00,
2013-04-02 11:58:00,80.0,61.5,30.11,NE,52,0.0,0.0,53,0.00,,,0.00,VWS V14.01,2013-04-02 15:58:00,
2013-04-02 12:03:00,80.2,60.6,30.11,East,97,0.0,2.9,51,0.00,,,0.00,VWS V14.01,2013-04-02 16:03:00,
2013-04-02 12:08:00,80.1,60.7,30.10,East,97,0.0,1.3,52,0.00,,,0.00,VWS V14.01,2013-04-02 16:08:00,
2013-04-02 12:13:00,80.4,60.8,30.10,North,0,0.0,3.5,51,0.00,,,0.00,VWS V14.01,2013-04-02 16:13:00,
2013-04-02 12:18:00,80.6,59.8,30.10,NNE,31,0.0,3.4,49,0.00,,,0.00,VWS V14.01,2013-04-02 16:18:00,
2013-04-02 12:23:00,80.8,59.7,30.10,NE,34,2.2,5.0,49,0.00,,,0.00,VWS V14.01,2013-04-02 16:23:00,
2013-04-02 12:29:00,81.4,59.8,30.10,North,353,0.0,0.0,48,0.00,,,0.00,VWS V14.01,2013-04-02 16:29:00,
2013-04-02 12:34:00,81.3,60.5,30.10,North,353,0.0,0.0,49,0.00,,,0.00,VWS V14.01,2013-04-02 16:34:00,
2013-04-02 12:39:00,81.9,58.9,30.10,North,352,6.0,6.0,46,0.00,,,0.00,VWS V14.01,2013-04-02 16:39:00,
2013-04-02 12:44:00,82.1,57.9,30.10,North,359,0.0,1.7,44,0.00,,,0.00,VWS V14.01,2013-04-02 16:44:00,
2013-04-02 12:49:00,82.2,58.2,30.09,North,359,0.0,0.0,44,0.00,,,0.00,VWS V14.01,2013-04-02 16:49:00,
2013-04-02 12:54:00,82.4,58.0,30.10,ENE,69,3.4,8.0,44,0.00,,,0.00,VWS V14.01,2013-04-02 16:54:00,
2013-04-02 12:59:00,82.8,56.1,30.10,NE,34,0.0,0.0,40,0.00,,,0.00,VWS V14.01,2013-04-02 16:59:00,
2013-04-02 13:04:00,82.6,56.7,30.09,NNE,14,0.0,0.0,41,0.00,,,0.00,VWS V14.01,2013-04-02 17:04:00,
2013-04-02 13:09:00,83.2,58.5,30.09,ENE,60,0.0,0.0,43,0.00,,,0.00,VWS V14.01,2013-04-02 17:09:00,
2013-04-02 13:14:00,83.4,56.5,30.09,NNE,21,0.0,0.0,40,0.00,,,0.00,VWS V14.01,2013-04-02 17:14:00,
2013-04-02 13:19:00,83.8,58.0,30.09,NNE,21,0.0,0.0,42,0.00,,,0.00,VWS V14.01,2013-04-02 17:19:00,
2013-04-02 13:24:00,84.5,55.4,30.09,NNE,21,0.0,0.0,37,0.00,,,0.00,VWS V14.01,2013-04-02 17:24:00,
2013-04-02 13:29:00,85.2,57.4,30.08,NNE,21,0.0,0.0,39,0.00,,,0.00,VWS V14.01,2013-04-02 17:29:00,
2013-04-02 13:34:00,85.9,56.5,30.08,NNE,21,0.0,0.0,37,0.00,,,0.00,VWS V14.01,2013-04-02 17:34:00,
2013-04-02 13:39:00,85.8,55.9,30.08,North,359,0.0,0.0,36,0.00,,,0.00,VWS V14.01,2013-04-02 17:39:00,
2013-04-02 13:44:00,85.4,56.2,30.08,NE,56,0.0,3.3,37,0.00,,,0.00,VWS V14.01,2013-04-02 17:44:00,
2013-04-02 13:49:00,85.1,55.8,30.08,ENE,60,0.0,0.0,37,0.00,,,0.00,VWS V14.01,2013-04-02 17:49:00,
2013-04-02 13:55:00,85.3,56.8,30.08,ENE,60,0.0,0.0,38,0.00,,,0.00,VWS V14.01,2013-04-02 17:55:00,
2013-04-02 14:00:00,85.5,55.8,30.08,NW,316,0.0,3.3,36,0.00,,,0.00,VWS V14.01,2013-04-02 18:00:00,
2013-04-02 14:05:00,86.2,56.5,30.07,West,259,0.0,3.4,36,0.00,,,0.00,VWS V14.01,2013-04-02 18:05:00,
2013-04-02 14:10:00,86.7,55.7,30.07,WSW,245,0.0,0.0,35,0.00,,,0.00,VWS V14.01,2013-04-02 18:10:00,
2013-04-02 14:15:00,87.0,55.5,30.07,WSW,245,0.0,0.0,34,0.00,,,0.00,VWS V14.01,2013-04-02 18:15:00,
2013-04-02 14:20:00,86.7,54.8,30.07,WSW,245,0.0,0.0,34,0.00,,,0.00,VWS V14.01,2013-04-02 18:20:00,
2013-04-02 14:25:00,86.5,55.1,30.07,WSW,245,0.0,0.0,34,0.00,,,0.00,VWS V14.01,2013-04-02 18:25:00,
2013-04-02 14:30:00,86.9,55.5,30.06,NW,309,0.0,3.2,34,0.00,,,0.00,VWS V14.01,2013-04-02 18:30:00,
2013-04-02 14:35:00,87.7,56.2,30.06,WSW,255,0.0,3.3,34,0.00,,,0.00,VWS V14.01,2013-04-02 18:35:00,
2013-04-02 14:40:00,88.2,55.1,30.06,East,91,0.0,4.5,32,0.00,,,0.00,VWS V14.01,2013-04-02 18:40:00,
2013-04-02 14:45:00,88.2,55.7,30.05,East,91,0.0,0.0,33,0.00,,,0.00,VWS V14.01,2013-04-02 18:45:00,
2013-04-02 14:50:00,88.0,55.6,30.05,East,91,0.0,0.0,33,0.00,,,0.00,VWS V14.01,2013-04-02 18:50:00,
2013-04-02 14:55:00,87.8,57.6,30.05,West,281,0.0,4.5,36,0.00,,,0.00,VWS V14.01,2013-04-02 18:55:00,
2013-04-02 15:00:00,88.2,54.8,30.05,ESE,120,0.0,0.0,32,0.00,,,0.00,VWS V14.01,2013-04-02 19:00:00,
2013-04-02 15:05:00,88.0,56.5,30.05,South,170,0.0,5.5,34,0.00,,,0.00,VWS V14.01,2013-04-02 19:05:00,
2013-04-02 15:10:00,87.9,55.2,30.05,East,90,0.0,0.0,33,0.00,,,0.00,VWS V14.01,2013-04-02 19:10:00,
2013-04-02 15:15:00,88.4,56.4,30.04,East,90,0.0,0.0,34,0.00,,,0.00,VWS V14.01,2013-04-02 19:15:00,
2013-04-02 15:20:00,88.4,54.8,30.04,South,180,0.0,0.0,32,0.00,,,0.00,VWS V14.01,2013-04-02 19:20:00,
2013-04-02 15:25:00,87.9,54.5,30.04,NE,56,0.0,0.0,32,0.00,,,0.00,VWS V14.01,2013-04-02 19:25:00,
2013-04-02 15:30:00,87.2,55.8,30.04,NE,56,0.0,0.0,34,0.00,,,0.00,VWS V14.01,2013-04-02 19:30:00,
2013-04-02 15:35:00,87.0,56.3,30.04,NE,56,0.0,0.0,35,0.00,,,0.00,VWS V14.01,2013-04-02 19:35:00,
2013-04-02 15:40:00,86.7,54.8,30.04,NE,56,0.0,0.0,34,0.00,,,0.00,VWS V14.01,2013-04-02 19:40:00,
2013-04-02 15:45:00,86.5,55.1,30.03,NE,56,0.0,0.0,34,0.00,,,0.00,VWS V14.01,2013-04-02 19:45:00,
2013-04-02 15:50:00,86.6,55.2,30.03,NE,45,0.0,4.3,34,0.00,,,0.00,VWS V14.01,2013-04-02 19:50:00,
2013-04-02 15:56:00,86.6,55.8,30.04,NE,45,0.0,0.0,35,0.00,,,0.00,VWS V14.01,2013-04-02 19:56:00,
2013-04-02 16:01:00,86.3,55.7,30.04,ENE,59,0.0,0.0,35,0.00,,,0.00,VWS V14.01,2013-04-02 20:01:00,
2013-04-02 16:06:00,86.5,56.8,30.04,East,84,0.0,3.1,36,0.00,,,0.00,VWS V14.01,2013-04-02 20:06:00,
2013-04-02 16:11:00,86.6,55.2,30.04,ENE,58,0.0,0.0,34,0.00,,,0.00,VWS V14.01,2013-04-02 20:11:00,
2013-04-02 16:16:00,86.6,56.4,30.03,ENE,58,0.0,0.0,36,0.00,,,0.00,VWS V14.01,2013-04-02 20:16:00,
2013-04-02 16:21:00,87.0,55.0,30.03,SSW,200,0.0,0.0,34,0.00,,,0.00,VWS V14.01,2013-04-02 20:21:00,
2013-04-02 16:26:00,86.7,54.4,30.03,SSW,200,0.0,2.9,33,0.00,,,0.00,VWS V14.01,2013-04-02 20:26:00,
2013-04-02 16:31:00,86.3,54.5,30.03,ENE,63,0.0,4.7,34,0.00,,,0.00,VWS V14.01,2013-04-02 20:31:00,
2013-04-02 16:36:00,86.3,55.5,30.04,NNE,22,0.0,0.0,35,0.00,,,0.00,VWS V14.01,2013-04-02 20:36:00,
2013-04-02 16:41:00,86.4,55.5,30.04,NE,46,0.0,0.0,35,0.00,,,0.00,VWS V14.01,2013-04-02 20:41:00,
2013-04-02 16:46:00,86.1,54.3,30.03,NE,46,0.0,0.0,34,0.00,,,0.00,VWS V14.01,2013-04-02 20:46:00,
2013-04-02 16:51:00,86.2,54.9,30.03,ESE,115,0.0,0.0,34,0.00,,,0.00,VWS V14.01,2013-04-02 20:51:00,
2013-04-02 16:56:00,86.2,54.6,30.04,ESE,115,0.0,0.0,34,0.00,,,0.00,VWS V14.01,2013-04-02 20:56:00,
2013-04-02 17:01:00,85.7,53.4,30.04,ENE,59,0.0,3.4,33,0.00,,,0.00,VWS V14.01,2013-04-02 21:01:00,
2013-04-02 17:06:00,84.9,53.9,30.04,ENE,59,0.0,0.0,35,0.00,,,0.00,VWS V14.01,2013-04-02 21:06:00,
2013-04-02 17:11:00,84.7,53.6,30.04,East,80,0.0,0.0,34,0.00,,,0.00,VWS V14.01,2013-04-02 21:11:00,
2013-04-02 17:16:00,84.8,54.2,30.04,East,80,0.0,0.0,35,0.00,,,0.00,VWS V14.01,2013-04-02 21:16:00,
2013-04-02 17:21:00,84.7,53.5,30.04,East,80,0.0,0.0,34,0.00,,,0.00,VWS V14.01,2013-04-02 21:21:00,
2013-04-02 17:27:00,84.7,52.4,30.04,East,80,3.3,3.3,33,0.00,,,0.00,VWS V14.01,2013-04-02 21:27:00,
2013-04-02 17:32:00,84.5,52.3,30.04,East,80,0.0,0.0,33,0.00,,,0.00,VWS V14.01,2013-04-02 21:32:00,
2013-04-02 17:37:00,84.4,52.9,30.04,East,80,0.0,0.0,34,0.00,,,0.00,VWS V14.01,2013-04-02 21:37:00,
2013-04-02 17:42:00,84.2,52.7,30.04,East,80,0.0,0.0,34,0.00,,,0.00,VWS V14.01,2013-04-02 21:42:00,
2013-04-02 17:47:00,83.7,52.0,30.04,East,94,0.0,0.0,34,0.00,,,0.00,VWS V14.01,2013-04-02 21:47:00,
2013-04-02 17:52:00,83.7,52.8,30.04,East,94,0.0,0.0,34,0.00,,,0.00,VWS V14.01,2013-04-02 21:52:00,
2013-04-02 17:57:00,83.4,52.8,30.05,NE,52,0.0,0.0,35,0.00,,,0.00,VWS V14.01,2013-04-02 21:57:00,
2013-04-02 18:02:00,82.9,52.5,30.05,NE,52,0.0,0.0,35,0.00,,,0.00,VWS V14.01,2013-04-02 22:02:00,
2013-04-02 18:07:00,82.7,52.3,30.05,NE,52,0.0,0.0,35,0.00,,,0.00,VWS V14.01,2013-04-02 22:07:00,
2013-04-02 18:12:00,82.6,52.1,30.05,NE,52,0.0,0.0,35,0.00,,,0.00,VWS V14.01,2013-04-02 22:12:00,
2013-04-02 18:17:00,82.4,51.9,30.05,NE,52,0.0,0.0,35,0.00,,,0.00,VWS V14.01,2013-04-02 22:17:00,
2013-04-02 18:22:00,81.9,52.3,30.05,NE,52,0.0,0.0,36,0.00,,,0.00,VWS V14.01,2013-04-02 22:22:00,
2013-04-02 18:27:00,80.9,52.2,30.05,ESE,107,0.0,0.0,37,0.00,,,0.00,VWS V14.01,2013-04-02 22:27:00,
2013-04-02 18:32:00,80.8,52.4,30.05,ESE,107,0.0,0.0,37,0.00,,,0.00,VWS V14.01,2013-04-02 22:32:00,
2013-04-02 18:37:00,80.4,52.6,30.05,ESE,107,0.0,2.0,38,0.00,,,0.00,VWS V14.01,2013-04-02 22:37:00,
2013-04-02 18:42:00,80.3,52.7,30.05,ESE,107,0.0,0.0,38,0.00,,,0.00,VWS V14.01,2013-04-02 22:42:00,
2013-04-02 18:47:00,80.1,52.7,30.05,ESE,107,0.0,0.0,39,0.00,,,0.00,VWS V14.01,2013-04-02 22:47:00,
2013-04-02 18:53:00,79.8,52.7,30.05,ESE,107,0.0,0.0,39,0.00,,,0.00,VWS V14.01,2013-04-02 22:53:00,
2013-04-02 18:58:00,79.3,53.0,30.05,ESE,107,0.0,0.0,40,0.00,,,0.00,VWS V14.01,2013-04-02 22:58:00,
2013-04-02 19:03:00,79.1,52.7,30.05,ESE,107,0.0,0.0,40,0.00,,,0.00,VWS V14.01,2013-04-02 23:03:00,
2013-04-02 19:08:00,78.9,53.5,30.05,ESE,107,0.0,0.0,41,0.00,,,0.00,VWS V14.01,2013-04-02 23:08:00,
2013-04-02 19:13:00,78.4,53.3,30.06,ESE,107,0.0,0.0,42,0.00,,,0.00,VWS V14.01,2013-04-02 23:13:00,
2013-04-02 19:18:00,78.2,53.2,30.06,ESE,107,0.0,0.0,42,0.00,,,0.00,VWS V14.01,2013-04-02 23:18:00,
2013-04-02 19:23:00,77.7,53.6,30.06,ESE,107,0.0,0.0,43,0.00,,,0.00,VWS V14.01,2013-04-02 23:23:00,
2013-04-02 19:28:00,77.3,53.7,30.06,ESE,107,0.0,0.0,44,0.00,,,0.00,VWS V14.01,2013-04-02 23:28:00,
2013-04-02 19:34:00,76.8,53.3,30.06,ESE,107,0.0,0.0,44,0.00,,,0.00,VWS V14.01,2013-04-02 23:34:00,
2013-04-02 19:39:00,76.4,53.8,30.06,ESE,107,0.0,0.0,45,0.00,,,0.00,VWS V14.01,2013-04-02 23:39:00,
2013-04-02 19:44:00,76.0,53.9,30.06,ESE,107,0.0,0.0,46,0.00,,,0.00,VWS V14.01,2013-04-02 23:44:00,
2013-04-02 19:49:00,75.7,54.1,30.06,ESE,107,0.0,0.0,47,0.00,,,0.00,VWS V14.01,2013-04-02 23:49:00,
2013-04-02 19:54:00,75.2,53.9,30.06,ESE,107,0.0,0.0,48,0.00,,,0.00,VWS V14.01,2013-04-02 23:54:00,
2013-04-02 19:59:00,75.0,54.1,30.06,ESE,107,0.0,0.0,48,0.00,,,0.00,VWS V14.01,2013-04-02 23:59:00,
2013-04-02 20:04:00,74.8,54.2,30.07,ESE,107,0.0,0.0,49,0.00,,,0.00,VWS V14.01,2013-04-03 00:04:00,
2013-04-02 20:09:00,74.5,54.4,30.07,ESE,107,0.0,0.0,50,0.00,,,0.00,VWS V14.01,2013-04-03 00:09:00,
2013-04-02 20:14:00,74.1,54.6,30.07,ESE,107,0.0,0.0,50,0.00,,,0.00,VWS V14.01,2013-04-03 00:14:00,
2013-04-02 20:19:00,73.9,54.8,30.07,ESE,107,0.0,0.0,51,0.00,,,0.00,VWS V14.01,2013-04-03 00:19:00,
2013-04-02 20:24:00,73.7,55.0,30.07,ESE,107,0.0,0.0,52,0.00,,,0.00,VWS V14.01,2013-04-03 00:24:00,
2013-04-02 20:29:00,73.3,55.3,30.07,ESE,107,0.0,0.0,53,0.00,,,0.00,VWS V14.01,2013-04-03 00:29:00,
2013-04-02 20:34:00,73.2,56.2,30.07,ESE,107,0.0,0.0,55,0.00,,,0.00,VWS V14.01,2013-04-03 00:34:00,
2013-04-02 20:39:00,72.9,56.2,30.07,ESE,107,0.0,0.0,56,0.00,,,0.00,VWS V14.01,2013-04-03 00:39:00,
2013-04-02 20:44:00,72.6,56.2,30.07,ESE,107,0.0,0.0,56,0.00,,,0.00,VWS V14.01,2013-04-03 00:44:00,
2013-04-02 20:49:00,72.4,56.4,30.08,ESE,107,0.0,0.0,57,0.00,,,0.00,VWS V14.01,2013-04-03 00:49:00,
2013-04-02 20:54:00,72.1,56.8,30.08,ESE,107,0.0,0.0,58,0.00,,,0.00,VWS V14.01,2013-04-03 00:54:00,
2013-04-02 20:59:00,71.7,57.0,30.08,ESE,107,0.0,0.0,60,0.00,,,0.00,VWS V14.01,2013-04-03 00:59:00,
2013-04-02 21:04:00,71.5,57.4,30.09,ESE,107,0.0,0.0,61,0.00,,,0.00,VWS V14.01,2013-04-03 01:04:00,
2013-04-02 21:09:00,71.5,58.1,30.09,ESE,107,0.0,0.0,63,0.00,,,0.00,VWS V14.01,2013-04-03 01:09:00,
2013-04-02 21:14:00,71.1,58.3,30.09,ESE,107,0.0,0.0,64,0.00,,,0.00,VWS V14.01,2013-04-03 01:14:00,
2013-04-02 21:19:00,70.9,58.6,30.09,ESE,107,0.0,0.0,65,0.00,,,0.00,VWS V14.01,2013-04-03 01:19:00,
2013-04-02 21:24:00,70.9,58.9,30.09,ESE,107,0.0,0.0,66,0.00,,,0.00,VWS V14.01,2013-04-03 01:24:00,
2013-04-02 21:29:00,70.6,58.9,30.09,ESE,107,0.0,0.0,66,0.00,,,0.00,VWS V14.01,2013-04-03 01:29:00,
2013-04-02 21:34:00,70.4,59.1,30.09,ESE,107,0.0,0.0,67,0.00,,,0.00,VWS V14.01,2013-04-03 01:34:00,
2013-04-02 21:39:00,70.2,59.2,30.09,ESE,107,0.0,0.0,68,0.00,,,0.00,VWS V14.01,2013-04-03 01:39:00,
2013-04-02 21:45:00,70.0,59.0,30.09,ESE,107,0.0,0.0,68,0.00,,,0.00,VWS V14.01,2013-04-03 01:45:00,
2013-04-02 21:50:00,69.7,59.1,30.09,ESE,107,0.0,0.0,69,0.00,,,0.00,VWS V14.01,2013-04-03 01:50:00,
2013-04-02 21:55:00,69.4,59.2,30.09,ESE,107,0.0,0.0,70,0.00,,,0.00,VWS V14.01,2013-04-03 01:55:00,
2013-04-02 22:00:00,69.4,59.2,30.09,ESE,107,0.0,0.0,70,0.00,,,0.00,VWS V14.01,2013-04-03 02:00:00,
2013-04-02 22:05:00,69.2,59.5,30.10,ESE,107,0.0,0.0,71,0.00,,,0.00,VWS V14.01,2013-04-03 02:05:00,
2013-04-02 22:10:00,69.1,59.6,30.10,ESE,107,0.0,0.0,72,0.00,,,0.00,VWS V14.01,2013-04-03 02:10:00,
2013-04-02 22:14:00,68.8,59.8,30.10,ESE,107,0.0,0.0,73,0.00,,,0.00,VWS V14.01,2013-04-03 02:14:00,
2013-04-02 22:20:00,68.4,59.8,30.10,ESE,107,0.0,0.0,74,0.00,,,0.00,VWS V14.01,2013-04-03 02:20:00,
2013-04-02 22:25:00,68.5,60.1,30.10,ESE,107,0.0,0.0,75,0.00,,,0.00,VWS V14.01,2013-04-03 02:25:00,
2013-04-02 22:30:00,68.5,60.6,30.10,ESE,107,0.0,0.0,76,0.00,,,0.00,VWS V14.01,2013-04-03 02:30:00,
2013-04-02 22:35:00,68.2,60.3,30.10,ESE,107,0.0,0.0,76,0.00,,,0.00,VWS V14.01,2013-04-03 02:35:00,
2013-04-02 22:40:00,67.9,60.4,30.10,ESE,107,0.0,0.0,77,0.00,,,0.00,VWS V14.01,2013-04-03 02:40:00,
2013-04-02 22:45:00,67.8,60.4,30.10,ESE,107,0.0,0.0,77,0.00,,,0.00,VWS V14.01,2013-04-03 02:45:00,
2013-04-02 22:50:00,67.5,60.3,30.09,ESE,107,0.0,0.0,78,0.00,,,0.00,VWS V14.01,2013-04-03 02:50:00,
2013-04-02 22:55:00,67.8,60.7,30.09,ESE,107,0.0,0.0,78,0.00,,,0.00,VWS V14.01,2013-04-03 02:55:00,
2013-04-02 23:00:00,67.4,60.6,30.09,ESE,107,0.0,0.0,79,0.00,,,0.00,VWS V14.01,2013-04-03 03:00:00,
2013-04-02 23:05:00,67.1,60.2,30.10,ESE,107,0.0,0.0,78,0.00,,,0.00,VWS V14.01,2013-04-03 03:05:00,
2013-04-02 23:10:00,67.2,60.5,30.10,ESE,107,0.0,0.0,79,0.00,,,0.00,VWS V14.01,2013-04-03 03:10:00,
2013-04-02 23:15:00,67.1,60.4,30.10,ESE,107,0.0,0.0,79,0.00,,,0.00,VWS V14.01,2013-04-03 03:15:00,
2013-04-02 23:20:00,67.0,60.4,30.10,ESE,107,0.0,0.0,79,0.00,,,0.00,VWS V14.01,2013-04-03 03:20:00,
2013-04-02 23:25:00,66.8,60.3,30.10,ESE,107,0.0,0.0,80,0.00,,,0.00,VWS V14.01,2013-04-03 03:25:00,
2013-04-02 23:30:00,66.3,59.8,30.10,ESE,107,0.0,0.0,80,0.00,,,0.00,VWS V14.01,2013-04-03 03:30:00,
2013-04-02 23:35:00,66.7,60.2,30.10,ESE,107,0.0,0.0,80,0.00,,,0.00,VWS V14.01,2013-04-03 03:35:00,
2013-04-02 23:41:00,66.8,60.4,30.10,ESE,107,0.0,0.0,80,0.00,,,0.00,VWS V14.01,2013-04-03 03:41:00,
2013-04-02 23:46:00,66.2,59.9,30.10,ESE,107,0.0,0.0,80,0.00,,,0.00,VWS V14.01,2013-04-03 03:46:00,
2013-04-02 23:51:00,66.1,59.9,30.10,ESE,107,0.0,0.0,80,0.00,,,0.00,VWS V14.01,2013-04-03 03:51:00,
2013-04-02 23:56:00,66.1,59.9,30.10,ESE,107,0.0,0.0,80,0.00,,,0.00,VWS V14.01,2013-04-03 03:56:00,